createdAt,value
2019-03-09T00:01:55.503Z,2.00
2019-03-09T00:04:26.075Z,1.80
2019-03-09T00:06:57.083Z,1.80
2019-03-09T00:09:28.006Z,1.70
2019-03-09T00:11:59.036Z,1.60
2019-03-09T00:14:29.957Z,1.60
2019-03-09T00:17:00.591Z,1.70
2019-03-09T00:19:31.185Z,1.70
2019-03-09T00:22:02.229Z,1.70
2019-03-09T00:24:45.530Z,1.60
2019-03-09T00:27:34.997Z,1.50
2019-03-09T00:30:27.140Z,1.50
2019-03-09T00:32:58.022Z,1.70
2019-03-09T00:35:28.847Z,1.60
2019-03-09T00:37:59.510Z,1.50
2019-03-09T00:40:30.217Z,1.60
2019-03-09T00:43:01.076Z,1.80
2019-03-09T00:45:31.982Z,1.70
2019-03-09T00:48:02.866Z,1.70
2019-03-09T00:50:33.943Z,1.80
2019-03-09T00:53:04.583Z,1.80
2019-03-09T00:55:35.167Z,1.90
2019-03-09T00:58:06.274Z,2.00
2019-03-09T01:00:37.224Z,2.10
2019-03-09T01:03:08.044Z,2.20
2019-03-09T01:05:38.912Z,2.20
2019-03-09T01:08:09.635Z,2.10
2019-03-09T01:10:40.295Z,2.10
2019-03-09T01:13:11.296Z,1.90
2019-03-09T01:15:42.193Z,1.90
2019-03-09T01:18:13.029Z,1.80
2019-03-09T01:20:43.654Z,1.80
2019-03-09T01:23:14.262Z,1.90
2019-03-09T01:25:45.079Z,1.70
2019-03-09T01:28:16.015Z,1.60
2019-03-09T01:30:46.584Z,1.50
2019-03-09T01:33:17.462Z,1.50
2019-03-09T01:35:48.066Z,1.50
2019-03-09T01:38:18.654Z,1.50
2019-03-09T01:40:49.212Z,1.60
2019-03-09T01:43:20.114Z,1.60
2019-03-09T01:45:52.435Z,1.60
2019-03-09T01:48:23.633Z,1.60
2019-03-09T01:50:54.217Z,1.70
2019-03-09T01:53:25.048Z,1.80
2019-03-09T01:55:55.802Z,2.20
2019-03-09T01:58:26.417Z,2.30
2019-03-09T02:00:57.428Z,2.40
2019-03-09T02:03:28.264Z,2.50
2019-03-09T02:05:59.152Z,2.50
2019-03-09T02:08:29.726Z,2.60
2019-03-09T02:11:00.460Z,2.60
2019-03-09T02:13:31.094Z,2.70
2019-03-09T02:16:02.264Z,2.70
2019-03-09T02:18:35.952Z,2.70
2019-03-09T02:21:06.545Z,2.80
2019-03-09T02:23:37.091Z,2.90
2019-03-09T02:26:07.691Z,3.20
2019-03-09T02:28:38.315Z,3.30
2019-03-09T02:31:08.912Z,3.50
2019-03-09T02:33:39.507Z,3.40
2019-03-09T02:36:10.356Z,3.40
2019-03-09T02:38:58.940Z,3.50
2019-03-09T02:41:29.543Z,3.50
2019-03-09T02:44:00.489Z,3.50
2019-03-09T02:46:31.305Z,3.70
2019-03-09T02:49:02.611Z,3.70
2019-03-09T02:51:33.382Z,3.90
2019-03-09T02:54:04.248Z,4.00
2019-03-09T02:56:34.873Z,4.00
2019-03-09T02:59:05.769Z,4.00
2019-03-09T03:01:48.539Z,4.00
2019-03-09T03:04:19.256Z,3.90
2019-03-09T03:06:49.837Z,3.80
2019-03-09T03:09:20.481Z,3.80
2019-03-09T03:11:52.716Z,4.00
2019-03-09T03:14:23.323Z,4.00
2019-03-09T03:16:54.024Z,4.10
2019-03-09T03:19:24.605Z,4.20
2019-03-09T03:21:55.494Z,4.30
2019-03-09T03:24:26.450Z,4.30
2019-03-09T03:26:57.349Z,4.40
2019-03-09T03:29:28.220Z,4.50
2019-03-09T03:31:58.800Z,4.50
2019-03-09T03:34:29.364Z,4.60
2019-03-09T03:37:00.559Z,4.50
2019-03-09T03:39:31.382Z,4.60
2019-03-09T03:42:02.240Z,4.90
2019-03-09T03:44:34.494Z,5.00
2019-03-09T03:47:05.384Z,5.00
2019-03-09T03:49:36.330Z,4.90
2019-03-09T03:52:06.933Z,5.10
2019-03-09T03:54:37.528Z,5.00
2019-03-09T03:57:08.398Z,5.10
2019-03-09T03:59:39.097Z,5.30
2019-03-09T04:02:10.097Z,5.20
2019-03-09T04:04:40.685Z,5.30
2019-03-09T04:07:11.346Z,5.30
2019-03-09T04:09:42.300Z,5.20
2019-03-09T04:12:13.028Z,5.20
2019-03-09T04:14:43.608Z,5.30
2019-03-09T04:17:14.406Z,5.10
2019-03-09T04:19:45.005Z,5.30
2019-03-09T04:22:15.588Z,5.20
2019-03-09T04:24:46.176Z,5.10
2019-03-09T04:27:16.787Z,5.00
2019-03-09T04:29:47.401Z,5.10
2019-03-09T04:32:17.950Z,5.20
2019-03-09T04:34:48.577Z,5.30
2019-03-09T04:37:19.429Z,5.30
2019-03-09T04:39:50.030Z,5.20
2019-03-09T04:42:20.613Z,5.20
2019-03-09T04:44:53.128Z,5.20
2019-03-09T04:47:23.698Z,5.40
2019-03-09T04:49:54.732Z,5.70
2019-03-09T04:52:25.474Z,5.70
2019-03-09T04:54:56.670Z,5.60
2019-03-09T04:57:27.540Z,5.50
2019-03-09T04:59:58.165Z,5.70
2019-03-09T05:02:28.726Z,5.70
2019-03-09T05:04:59.642Z,5.40
2019-03-09T05:07:40.770Z,5.50
2019-03-09T05:10:51.639Z,5.40
2019-03-09T05:13:36.501Z,5.50
2019-03-09T05:16:07.090Z,5.50
2019-03-09T05:18:37.702Z,5.50
2019-03-09T05:21:08.581Z,5.50
2019-03-09T05:23:39.208Z,5.40
2019-03-09T05:26:10.091Z,5.30
2019-03-09T05:28:40.707Z,5.30
2019-03-09T05:31:11.505Z,5.40
2019-03-09T05:33:42.101Z,5.60
2019-03-09T05:36:12.728Z,5.40
2019-03-09T05:38:43.678Z,5.40
2019-03-09T05:41:14.667Z,5.50
2019-03-09T05:43:45.559Z,5.30
2019-03-09T05:46:16.137Z,5.30
2019-03-09T05:48:46.754Z,5.20
2019-03-09T05:51:17.369Z,5.20
2019-03-09T05:53:47.923Z,5.10
2019-03-09T05:56:18.776Z,5.20
2019-03-09T05:58:49.579Z,5.20
2019-03-09T06:01:20.218Z,5.30
2019-03-09T06:03:50.802Z,5.20
2019-03-09T06:06:22.002Z,5.20
2019-03-09T06:08:53.474Z,5.20
2019-03-09T06:11:24.062Z,5.30
2019-03-09T06:13:54.982Z,5.20
2019-03-09T06:16:25.720Z,5.20
2019-03-09T06:18:56.899Z,5.20
2019-03-09T06:21:30.210Z,5.30
2019-03-09T06:24:00.813Z,5.40
2019-03-09T06:26:32.028Z,5.30
2019-03-09T06:29:02.701Z,5.40
2019-03-09T06:31:33.319Z,5.40
2019-03-09T06:34:04.188Z,5.40
2019-03-09T06:37:12.185Z,5.50
2019-03-09T06:39:46.816Z,5.50
2019-03-09T06:42:39.522Z,5.60
2019-03-09T06:45:13.713Z,5.70
2019-03-09T06:47:44.301Z,5.70
2019-03-09T06:50:20.078Z,5.70
2019-03-09T06:52:50.711Z,5.70
2019-03-09T06:55:21.306Z,5.80
2019-03-09T06:57:53.051Z,5.80
2019-03-09T07:00:43.892Z,5.90
2019-03-09T07:03:14.767Z,6.00
2019-03-09T07:05:45.399Z,6.00
2019-03-09T07:08:15.955Z,6.00
2019-03-09T07:10:46.814Z,6.00
2019-03-09T07:13:17.461Z,6.00
2019-03-09T07:15:48.779Z,6.00
2019-03-09T07:18:29.254Z,6.00
2019-03-09T07:20:59.973Z,6.00
2019-03-09T07:23:30.899Z,6.00
2019-03-09T07:26:01.516Z,6.10
2019-03-09T07:28:32.118Z,6.20
2019-03-09T07:31:03.121Z,6.20
2019-03-09T07:33:33.999Z,6.00
2019-03-09T07:36:05.290Z,6.10
2019-03-09T07:38:35.983Z,6.10
2019-03-09T07:41:07.173Z,6.10
2019-03-09T07:43:37.838Z,6.20
2019-03-09T07:46:08.505Z,6.30
2019-03-09T07:48:40.875Z,6.40
2019-03-09T07:51:11.479Z,6.40
2019-03-09T07:53:42.430Z,6.50
2019-03-09T07:56:13.142Z,6.50
2019-03-09T07:58:43.948Z,6.50
2019-03-09T08:01:14.861Z,6.60
2019-03-09T08:03:45.554Z,6.60
2019-03-09T08:06:16.202Z,6.70
2019-03-09T08:08:47.043Z,6.80
2019-03-09T08:11:17.943Z,6.80
2019-03-09T08:13:48.878Z,6.90
2019-03-09T08:16:19.507Z,7.00
2019-03-09T08:18:50.128Z,6.90
2019-03-09T08:21:21.052Z,6.90
2019-03-09T08:23:53.456Z,7.00
2019-03-09T08:26:24.090Z,7.00
2019-03-09T08:28:55.232Z,7.10
2019-03-09T08:31:25.964Z,7.10
2019-03-09T08:33:57.181Z,7.20
2019-03-09T08:36:28.106Z,7.20
2019-03-09T08:38:59.076Z,7.30
2019-03-09T08:41:29.981Z,7.40
2019-03-09T08:44:01.203Z,7.50
2019-03-09T08:46:32.196Z,7.60
2019-03-09T08:49:03.418Z,7.70
2019-03-09T08:51:34.218Z,7.80
2019-03-09T08:54:05.149Z,7.90
2019-03-09T08:56:36.006Z,7.90
2019-03-09T08:59:07.254Z,8.00
2019-03-09T09:01:38.056Z,8.20
2019-03-09T09:04:09.231Z,8.30
2019-03-09T09:06:40.165Z,8.60
2019-03-09T09:09:11.141Z,8.80
2019-03-09T09:11:41.832Z,8.90
2019-03-09T09:14:12.763Z,9.00
2019-03-09T09:16:43.355Z,9.00
2019-03-09T09:19:14.106Z,9.00
2019-03-09T09:21:44.779Z,9.20
2019-03-09T09:24:15.416Z,9.10
2019-03-09T09:26:46.138Z,9.10
2019-03-09T09:29:16.773Z,9.10
2019-03-09T09:31:47.435Z,9.10
2019-03-09T09:34:18.168Z,9.10
2019-03-09T09:36:48.775Z,9.30
2019-03-09T09:39:19.670Z,9.80
2019-03-09T09:41:50.337Z,9.80
2019-03-09T09:44:21.096Z,9.70
2019-03-09T09:46:53.499Z,9.80
2019-03-09T09:49:24.249Z,10.00
2019-03-09T09:51:55.486Z,10.00
2019-03-09T09:54:26.345Z,10.10
2019-03-09T09:56:57.237Z,10.30
2019-03-09T09:59:28.239Z,10.30
2019-03-09T10:01:59.449Z,10.40
2019-03-09T10:04:30.231Z,10.90
2019-03-09T10:07:01.471Z,10.80
2019-03-09T10:09:32.385Z,10.80
2019-03-09T10:12:03.261Z,10.70
2019-03-09T10:14:34.139Z,10.60
2019-03-09T10:17:05.357Z,10.30
2019-03-09T10:19:36.287Z,10.30
2019-03-09T10:22:07.490Z,10.30
2019-03-09T10:24:38.387Z,10.20
2019-03-09T10:27:09.636Z,10.20
2019-03-09T10:29:40.271Z,10.10
2019-03-09T10:32:11.495Z,10.10
2019-03-09T10:34:42.376Z,10.20
2019-03-09T10:37:13.352Z,10.30
2019-03-09T10:39:43.942Z,10.30
2019-03-09T10:42:14.620Z,10.30
2019-03-09T10:44:46.154Z,10.30
2019-03-09T10:47:16.826Z,10.10
2019-03-09T10:49:47.554Z,9.90
2019-03-09T10:52:18.348Z,9.90
2019-03-09T10:54:49.059Z,9.90
2019-03-09T10:57:19.711Z,10.00
2019-03-09T10:59:50.361Z,10.10
2019-03-09T11:02:21.287Z,10.00
2019-03-09T11:04:53.628Z,10.10
2019-03-09T11:07:24.310Z,10.00
2019-03-09T11:09:55.548Z,10.00
2019-03-09T11:12:26.389Z,9.90
2019-03-09T11:14:57.330Z,10.00
2019-03-09T11:17:28.006Z,10.10
2019-03-09T11:19:58.901Z,10.20
2019-03-09T11:22:29.574Z,10.20
2019-03-09T11:25:03.682Z,10.20
2019-03-09T11:27:32.683Z,10.30
2019-03-09T11:30:03.469Z,10.20
2019-03-09T11:32:35.243Z,10.10
2019-03-09T11:35:06.007Z,10.20
2019-03-09T11:37:36.717Z,10.20
2019-03-09T11:40:07.715Z,10.30
2019-03-09T11:42:38.682Z,10.30
2019-03-09T11:45:10.434Z,10.20
2019-03-09T11:47:41.116Z,10.10
2019-03-09T11:50:12.111Z,10.30
2019-03-09T11:52:42.816Z,10.10
2019-03-09T11:55:13.588Z,10.10
2019-03-09T11:57:44.521Z,10.20
2019-03-09T12:00:19.844Z,10.10
2019-03-09T12:02:50.445Z,10.20
2019-03-09T12:05:21.450Z,10.30
2019-03-09T12:07:53.879Z,10.30
2019-03-09T12:10:24.524Z,10.50
2019-03-09T12:12:55.719Z,10.40
2019-03-09T12:15:26.610Z,10.40
2019-03-09T12:17:57.543Z,10.40
2019-03-09T12:20:29.896Z,10.30
2019-03-09T12:23:25.717Z,10.40
2019-03-09T12:25:56.647Z,10.40
2019-03-09T12:28:27.500Z,10.40
2019-03-09T12:30:58.159Z,10.50
2019-03-09T12:33:28.836Z,10.50
2019-03-09T12:35:59.910Z,10.50
2019-03-09T12:38:30.540Z,10.60
2019-03-09T12:41:01.504Z,10.80
2019-03-09T12:43:32.204Z,10.90
2019-03-09T12:46:03.157Z,10.80
2019-03-09T12:48:33.804Z,10.80
2019-03-09T12:51:04.765Z,10.70
2019-03-09T12:53:35.548Z,10.60
2019-03-09T12:56:06.249Z,10.60
2019-03-09T12:58:36.877Z,10.60
2019-03-09T13:01:07.912Z,10.50
2019-03-09T13:03:38.771Z,10.50
2019-03-09T13:06:10.007Z,10.50
2019-03-09T13:08:40.645Z,10.50
2019-03-09T13:11:11.865Z,10.50
2019-03-09T13:13:42.537Z,10.50
2019-03-09T13:16:13.738Z,10.40
2019-03-09T13:18:44.868Z,10.40
2019-03-09T13:21:15.740Z,10.40
2019-03-09T13:23:46.628Z,10.40
2019-03-09T13:26:17.573Z,10.30
2019-03-09T13:28:48.185Z,10.30
2019-03-09T13:31:18.933Z,10.30
2019-03-09T13:33:49.916Z,10.30
2019-03-09T13:36:20.882Z,10.30
2019-03-09T13:38:51.756Z,10.30
2019-03-09T13:41:22.647Z,10.30
2019-03-09T13:43:54.158Z,10.20
2019-03-09T13:46:24.834Z,10.10
2019-03-09T13:48:56.126Z,10.00
2019-03-09T13:51:26.771Z,10.10
2019-03-09T13:53:57.652Z,10.00
2019-03-09T13:56:28.275Z,9.90
2019-03-09T13:58:59.256Z,9.80
2019-03-09T14:01:30.098Z,9.80
2019-03-09T14:04:01.143Z,9.80
2019-03-09T14:06:31.777Z,9.80
2019-03-09T14:09:04.238Z,9.80
2019-03-09T14:11:34.872Z,9.70
2019-03-09T14:14:06.162Z,9.60
2019-03-09T14:16:38.751Z,9.50
2019-03-09T14:19:12.991Z,9.40
2019-03-09T14:21:43.936Z,9.30
2019-03-09T14:24:14.883Z,9.10
2019-03-09T14:26:45.970Z,9.00
2019-03-09T14:29:16.707Z,8.90
2019-03-09T14:31:47.348Z,8.90
2019-03-09T14:34:18.089Z,8.80
2019-03-09T14:36:51.451Z,8.80
2019-03-09T14:39:22.157Z,8.80
2019-03-09T14:41:54.308Z,8.70
2019-03-09T14:44:25.013Z,8.70
2019-03-09T14:46:56.161Z,8.70
2019-03-09T14:49:28.816Z,8.70
2019-03-09T14:51:59.966Z,8.70
2019-03-09T14:54:33.243Z,8.80
2019-03-09T14:57:04.031Z,8.80
2019-03-09T14:59:34.802Z,8.80
2019-03-09T15:02:06.030Z,8.80
2019-03-09T15:04:36.867Z,8.90
2019-03-09T15:07:10.971Z,8.90
2019-03-09T15:09:41.512Z,8.90
2019-03-09T15:12:12.327Z,8.90
2019-03-09T15:14:43.059Z,8.80
2019-03-09T15:17:13.852Z,8.80
2019-03-09T15:19:44.519Z,8.80
2019-03-09T15:22:15.143Z,8.90
2019-03-09T15:24:46.097Z,8.90
2019-03-09T15:27:17.035Z,9.00
2019-03-09T15:29:47.974Z,9.00
2019-03-09T15:32:18.864Z,9.00
2019-03-09T15:34:49.686Z,9.00
2019-03-09T15:37:20.379Z,9.10
2019-03-09T15:39:51.041Z,9.10
2019-03-09T15:42:21.928Z,9.00
2019-03-09T15:44:53.802Z,9.00
2019-03-09T15:47:24.467Z,9.00
2019-03-09T15:49:55.474Z,9.00
2019-03-09T15:52:26.089Z,9.00
2019-03-09T15:54:57.006Z,9.00
2019-03-09T15:57:27.705Z,9.00
2019-03-09T15:59:58.359Z,8.90
2019-03-09T16:02:29.004Z,9.00
2019-03-09T16:05:00.322Z,8.90
2019-03-09T16:07:31.047Z,8.80
2019-03-09T16:10:02.317Z,8.90
2019-03-09T16:12:33.248Z,8.90
2019-03-09T16:15:04.035Z,8.90
2019-03-09T16:17:35.029Z,8.80
2019-03-09T16:20:07.040Z,8.80
2019-03-09T16:22:38.028Z,8.90
2019-03-09T16:25:08.851Z,8.90
2019-03-09T16:27:39.497Z,8.80
2019-03-09T16:30:13.986Z,8.90
2019-03-09T16:32:45.013Z,9.00
2019-03-09T16:35:15.937Z,8.90
2019-03-09T16:37:46.639Z,9.00
2019-03-09T16:40:17.333Z,9.10
2019-03-09T16:42:48.207Z,9.00
2019-03-09T16:45:18.888Z,9.00
2019-03-09T16:47:49.623Z,8.90
2019-03-09T16:50:20.346Z,9.00
2019-03-09T16:52:51.175Z,8.80
2019-03-09T16:55:22.103Z,8.90
2019-03-09T16:57:54.457Z,8.90
2019-03-09T17:00:25.264Z,9.10
2019-03-09T17:02:56.206Z,8.90
2019-03-09T17:05:27.039Z,8.90
2019-03-09T17:07:57.712Z,8.90
2019-03-09T17:10:28.428Z,9.00
2019-03-09T17:12:59.397Z,8.90
2019-03-09T17:15:30.281Z,8.90
2019-03-09T17:18:01.611Z,8.90
2019-03-09T17:20:32.221Z,8.90
2019-03-09T17:23:03.129Z,9.00
2019-03-09T17:25:33.795Z,8.90
2019-03-09T17:28:04.393Z,8.70
2019-03-09T17:30:35.558Z,8.80
2019-03-09T17:33:06.448Z,9.00
2019-03-09T17:35:37.265Z,8.90
2019-03-09T17:38:08.426Z,8.90
2019-03-09T17:40:39.204Z,9.00
2019-03-09T17:43:10.141Z,8.80
2019-03-09T17:45:40.858Z,8.80
2019-03-09T17:48:13.592Z,8.70
2019-03-09T17:50:44.242Z,8.80
2019-03-09T17:53:15.290Z,9.10
2019-03-09T17:55:46.187Z,9.00
2019-03-09T17:58:17.147Z,9.00
2019-03-09T18:00:48.278Z,9.10
2019-03-09T18:03:18.909Z,9.10
2019-03-09T18:05:49.554Z,9.00
2019-03-09T18:08:20.290Z,9.10
2019-03-09T18:10:56.000Z,9.10
2019-03-09T18:13:26.748Z,9.00
2019-03-09T18:15:57.986Z,9.00
2019-03-09T18:18:28.603Z,9.20
2019-03-09T18:20:59.534Z,9.00
2019-03-09T18:23:30.340Z,8.80
2019-03-09T18:26:01.298Z,8.70
2019-03-09T18:28:32.288Z,8.60
2019-03-09T18:31:02.966Z,8.50
2019-03-09T18:33:33.646Z,8.40
2019-03-09T18:36:04.629Z,8.60
2019-03-09T18:38:35.292Z,8.60
2019-03-09T18:41:06.705Z,8.60
2019-03-09T18:43:37.415Z,8.40
2019-03-09T18:46:08.720Z,8.40
2019-03-09T18:48:39.587Z,8.30
2019-03-09T18:51:10.415Z,8.00
2019-03-09T18:53:41.347Z,8.00
2019-03-09T18:56:12.412Z,8.20
2019-03-09T18:58:43.362Z,7.90
2019-03-09T19:01:14.339Z,7.90
2019-03-09T19:03:44.950Z,7.80
2019-03-09T19:06:15.714Z,7.70
2019-03-09T19:08:46.406Z,8.00
2019-03-09T19:11:17.448Z,7.90
2019-03-09T19:13:48.397Z,7.80
2019-03-09T19:16:19.394Z,8.10
2019-03-09T19:18:50.113Z,8.30
2019-03-09T19:21:20.950Z,8.20
2019-03-09T19:23:51.652Z,8.10
2019-03-09T19:26:22.523Z,8.70
2019-03-09T19:28:54.814Z,8.40
2019-03-09T19:31:25.553Z,8.40
2019-03-09T19:33:56.701Z,8.20
2019-03-09T19:36:27.596Z,8.10
2019-03-09T19:38:58.442Z,7.90
2019-03-09T19:41:29.377Z,7.90
2019-03-09T19:44:00.718Z,7.90
2019-03-09T19:46:31.517Z,8.20
2019-03-09T19:49:02.680Z,8.20
2019-03-09T19:51:33.535Z,8.40
2019-03-09T19:54:04.582Z,8.30
2019-03-09T19:56:35.458Z,8.40
2019-03-09T19:59:06.486Z,8.40
2019-03-09T20:01:37.397Z,8.30
2019-03-09T20:04:11.752Z,8.60
2019-03-09T20:06:42.622Z,8.40
2019-03-09T20:09:13.751Z,8.60
2019-03-09T20:11:44.534Z,8.30
2019-03-09T20:14:15.482Z,8.40
2019-03-09T20:16:46.131Z,8.50
2019-03-09T20:19:16.839Z,8.70
2019-03-09T20:21:50.113Z,8.70
2019-03-09T20:24:20.867Z,8.40
2019-03-09T20:26:57.213Z,8.40
2019-03-09T20:29:27.948Z,8.50
2019-03-09T20:31:58.927Z,8.50
2019-03-09T20:34:32.982Z,8.40
2019-03-09T20:37:03.915Z,8.30
2019-03-09T20:39:34.716Z,8.30
2019-03-09T20:42:05.735Z,8.30
2019-03-09T20:44:36.619Z,8.20
2019-03-09T20:47:07.578Z,8.10
2019-03-09T20:49:38.212Z,8.20
2019-03-09T20:52:08.962Z,8.30
2019-03-09T20:54:39.787Z,8.20
2019-03-09T20:57:10.867Z,8.20
2019-03-09T20:59:41.716Z,8.30
2019-03-09T21:02:12.900Z,8.10
2019-03-09T21:04:43.598Z,8.30
2019-03-09T21:07:14.831Z,8.30
2019-03-09T21:09:47.950Z,8.20
2019-03-09T21:12:18.191Z,8.10
2019-03-09T21:14:48.832Z,8.20
2019-03-09T21:17:19.799Z,8.20
2019-03-09T21:19:50.854Z,8.20
2019-03-09T21:22:21.787Z,8.10
2019-03-09T21:24:52.791Z,8.10
2019-03-09T21:27:23.778Z,8.00
2019-03-09T21:29:56.160Z,8.00
2019-03-09T21:32:26.850Z,7.90
2019-03-09T21:34:57.734Z,8.00
2019-03-09T21:37:28.664Z,8.10
2019-03-09T21:39:59.534Z,8.20
2019-03-09T21:42:30.172Z,8.00
2019-03-09T21:45:00.759Z,7.90
2019-03-09T21:47:31.743Z,8.00
2019-03-09T21:50:03.051Z,8.10
2019-03-09T21:52:33.771Z,8.20
2019-03-09T21:55:05.068Z,8.20
2019-03-09T21:57:35.883Z,7.90
2019-03-09T22:00:08.043Z,8.10
2019-03-09T22:02:38.776Z,8.10
2019-03-09T22:05:11.914Z,8.40
2019-03-09T22:07:42.716Z,8.10
2019-03-09T22:10:13.666Z,8.10
2019-03-09T22:12:44.446Z,8.20
2019-03-09T22:15:15.289Z,8.30
2019-03-09T22:17:45.972Z,8.30
2019-03-09T22:20:16.820Z,8.20
2019-03-09T22:22:47.817Z,8.00
2019-03-09T22:25:18.749Z,8.10
2019-03-09T22:27:49.377Z,8.30
2019-03-09T22:30:20.059Z,8.10
2019-03-09T22:32:50.807Z,7.90
2019-03-09T22:35:21.770Z,8.10
2019-03-09T22:37:53.307Z,8.20
2019-03-09T22:40:23.984Z,8.10
2019-03-09T22:42:55.273Z,8.10
2019-03-09T22:45:26.040Z,8.20
2019-03-09T22:47:56.808Z,8.10
2019-03-09T22:50:27.731Z,8.50
2019-03-09T22:52:58.929Z,8.50
2019-03-09T22:55:29.999Z,8.30
2019-03-09T22:58:01.133Z,8.40
2019-03-09T23:00:36.623Z,8.30
2019-03-09T23:03:07.456Z,8.20
2019-03-09T23:05:41.549Z,8.40
2019-03-09T23:08:12.479Z,8.50
2019-03-09T23:10:43.141Z,8.50
2019-03-09T23:13:13.833Z,8.40
2019-03-09T23:15:44.509Z,8.40
2019-03-09T23:18:15.219Z,8.50
2019-03-09T23:20:45.888Z,8.40
2019-03-09T23:23:16.775Z,8.50
2019-03-09T23:25:47.451Z,8.60
2019-03-09T23:28:18.100Z,8.70
2019-03-09T23:30:48.959Z,8.80
2019-03-09T23:33:19.592Z,8.90
2019-03-09T23:35:50.247Z,8.80
2019-03-09T23:38:20.910Z,8.60
2019-03-09T23:40:51.534Z,8.40
2019-03-09T23:43:22.555Z,8.30
2019-03-09T23:45:53.181Z,8.30
2019-03-09T23:48:24.317Z,8.30
2019-03-09T23:50:55.525Z,8.40
2019-03-09T23:53:26.188Z,8.40
2019-03-09T23:55:57.218Z,8.20
2019-03-09T23:58:28.026Z,8.20
